Observation data for Levelland on 01/18/2019      Previous  Date  Next       Current Mesonet Observations  Soil Data  Daily Summary Page  Observations in Plain Language
KLD1 180600Z 22006KT 06/M01 A3002 RMK A01 T00591013  RH  060%=      5-min Rain = 0
KLD1 180605Z 23006KT 06/M01 A3002 RMK A01 T00571014  RH  061%=      5-min Rain = 0
KLD1 180610Z 22007KT 06/M01 A3002 RMK A01 T00551014  RH  062%=      5-min Rain = 0
KLD1 180615Z 21007KT 05/M01 A3002 RMK A01 T00541014  RH  062%=      5-min Rain = 0
KLD1 180620Z 20007KT 05/M02 A3001 RMK A01 T00521015  RH  063%=      5-min Rain = 0
KLD1 180625Z 20007KT 05/M02 A3001 RMK A01 T00501015  RH  064%=      5-min Rain = 0
KLD1 180630Z 20008KT 06/M01 A3001 RMK A01 T00551012  RH  063%=      5-min Rain = 0
KLD1 180635Z 20009KT 06/M01 A3001 RMK A01 T00611010  RH  061%=      5-min Rain = 0
KLD1 180640Z 20009KT 06/M01 A3001 RMK A01 T00631010  RH  060%=      5-min Rain = 0
KLD1 180645Z 20008KT 06/M01 A3001 RMK A01 T00611010  RH  061%=      5-min Rain = 0
KLD1 180650Z 21009KT 06/M01 A3001 RMK A01 T00621009  RH  061%=      5-min Rain = 0
KLD1 180655Z 21009KT 06/M01 A30 RMK A01 T00641010  RH  060%=      5-min Rain = 0
KLD1 180700Z 21009KT 06/M01 A30 RMK A01 T00641010  RH  060%=      5-min Rain = 0
KLD1 180705Z 21009KT 06/M01 A30 RMK A01 T00631010  RH  060%=      5-min Rain = 0
KLD1 180710Z 21008KT 06/M01 A30 RMK A01 T00621010  RH  061%=      5-min Rain = 0
KLD1 180715Z 22006KT 06/M01 A30 RMK A01 T00601010  RH  062%=      5-min Rain = 0
KLD1 180720Z 22005KT 06/M01 A2999 RMK A01 T00561011  RH  063%=      5-min Rain = 0
KLD1 180725Z 22005KT 05/M01 A2999 RMK A01 T00541011  RH  064%=      5-min Rain = 0
KLD1 180730Z 22006KT 05/M01 A2999 RMK A01 T00531010  RH  064%=      5-min Rain = 0
KLD1 180735Z 22007KT 06/M01 A2998 RMK A01 T00571008  RH  064%=      5-min Rain = 0
KLD1 180740Z 22006KT 06/M01 A2998 RMK A01 T00561009  RH  063%=      5-min Rain = 0
KLD1 180745Z 24007KT 05/M01 A2997 RMK A01 T00511010  RH  065%=      5-min Rain = 0
KLD1 180750Z 23007KT 05/M01 A2997 RMK A01 T00461011  RH  067%=      5-min Rain = 0
KLD1 180755Z 23008KT 04/M01 A2997 RMK A01 T00411012  RH  069%=      5-min Rain = 0
KLD1 180800Z 22008KT 04/M01 A2996 RMK A01 T00411011  RH  070%=      5-min Rain = 0
KLD1 180805Z 22008KT 04/M01 A2996 RMK A01 T00431011  RH  068%=      5-min Rain = 0
KLD1 180810Z 22007KT 04/M01 A2996 RMK A01 T00421012  RH  069%=      5-min Rain = 0
KLD1 180815Z 22007KT 04/M01 A2996 RMK A01 T00421011  RH  069%=      5-min Rain = 0
KLD1 180820Z 24006KT 04/M01 A2996 RMK A01 T00401012  RH  070%=      5-min Rain = 0
KLD1 180825Z 24007KT 04/M01 A2996 RMK A01 T00381012  RH  071%=      5-min Rain = 0
KLD1 180830Z 23007KT 04/M01 A2996 RMK A01 T00381012  RH  071%=      5-min Rain = 0
KLD1 180835Z 22007KT 04/M01 A2995 RMK A01 T00381012  RH  070%=      5-min Rain = 0
KLD1 180840Z 22007KT 04/M01 A2995 RMK A01 T00361013  RH  071%=      5-min Rain = 0
KLD1 180845Z 22008KT 04/M01 A2995 RMK A01 T00371012  RH  071%=      5-min Rain = 0
KLD1 180850Z 22008KT 04/M01 A2995 RMK A01 T00411011  RH  070%=      5-min Rain = 0
KLD1 180855Z 22008KT 04/M01 A2994 RMK A01 T00421011  RH  069%=      5-min Rain = 0
KLD1 180900Z 22008KT 04/M01 A2994 RMK A01 T00421011  RH  069%=      5-min Rain = 0
KLD1 180905Z 23008KT 04/M01 A2994 RMK A01 T00431010  RH  069%=      5-min Rain = 0
KLD1 180910Z 22009KT 05/M01 A2994 RMK A01 T00461009  RH  068%=      5-min Rain = 0
KLD1 180915Z 22010KT 05/M01 A2994 RMK A01 T00481009  RH  067%=      5-min Rain = 0
KLD1 180920Z 22010KT 05/M01 A2994 RMK A01 T00501008  RH  067%=      5-min Rain = 0
KLD1 180925Z 23010KT 05/M01 A2994 RMK A01 T00531007  RH  066%=      5-min Rain = 0
KLD1 180930Z 23009KT 05/M01 A2994 RMK A01 T00541008  RH  065%=      5-min Rain = 0
KLD1 180935Z 24009KT 06/M01 A2993 RMK A01 T00551008  RH  064%=      5-min Rain = 0
KLD1 180940Z 24008KT 06/M01 A2993 RMK A01 T00561009  RH  063%=      5-min Rain = 0
KLD1 180945Z 25008KT 06/M01 A2993 RMK A01 T00551010  RH  064%=      5-min Rain = 0
KLD1 180950Z 26008KT 05/M01 A2993 RMK A01 T00491012  RH  065%=      5-min Rain = 0
KLD1 180955Z 26009KT 05/M01 A2992 RMK A01 T00481011  RH  066%=      5-min Rain = 0
KLD1 181000Z 25009KT 06/M01 A2992 RMK A01 T00551010  RH  063%=      5-min Rain = 0
KLD1 181005Z 24010KT 06/M01 A2992 RMK A01 T00561011  RH  063%=      5-min Rain = 0
KLD1 181010Z 24011KT 06/M01 A2992 RMK A01 T00601011  RH  061%=      5-min Rain = 0
KLD1 181015Z 24011KT 07/M01 A2992 RMK A01 T00691011  RH  057%=      5-min Rain = 0
KLD1 181020Z 24010KT 07/M01 A2992 RMK A01 T00691012  RH  057%=      5-min Rain = 0
KLD1 181025Z 24011KT 07/M01 A2991 RMK A01 T00671012  RH  057%=      5-min Rain = 0
KLD1 181030Z 24011KT 07/M01 A2991 RMK A01 T00691012  RH  057%=      5-min Rain = 0
KLD1 181035Z 23012KT 07/M01 A299 RMK A01 T00741012  RH  055%=      5-min Rain = 0
KLD1 181040Z 24011KT 07/M01 A299 RMK A01 T00731012  RH  055%=      5-min Rain = 0
KLD1 181045Z 24010KT 07/M01 A299 RMK A01 T00701013  RH  056%=      5-min Rain = 0
KLD1 181050Z 24010KT 07/M01 A299 RMK A01 T00701012  RH  056%=      5-min Rain = 0
KLD1 181055Z 23010KT 07/M01 A2989 RMK A01 T00711012  RH  056%=      5-min Rain = 0
KLD1 181100Z 23010KT 07/M01 A2988 RMK A01 T00711012  RH  056%=      5-min Rain = 0
KLD1 181105Z 23011KT 07/M01 A2988 RMK A01 T00711012  RH  056%=      5-min Rain = 0
KLD1 181110Z 23011KT 07/M01 A2988 RMK A01 T00721012  RH  056%=      5-min Rain = 0
KLD1 181115Z 23010KT 07/M01 A2988 RMK A01 T00731012  RH  055%=      5-min Rain = 0
KLD1 181120Z 23011KT 08/M01 A2988 RMK A01 T00751011  RH  055%=      5-min Rain = 0
KLD1 181125Z 23011KT 08/M01 A2987 RMK A01 T00751012  RH  055%=      5-min Rain = 0
KLD1 181130Z 23010KT 08/M01 A2987 RMK A01 T00751012  RH  055%=      5-min Rain = 0
KLD1 181135Z 23011KT 07/M01 A2987 RMK A01 T00741012  RH  055%=      5-min Rain = 0
KLD1 181140Z 23011KT 07/M01 A2986 RMK A01 T00741012  RH  055%=      5-min Rain = 0
KLD1 181145Z 23009KT 07/M01 A2985 RMK A01 T00721012  RH  056%=      5-min Rain = 0
KLD1 181150Z 23010KT 07/M01 A2986 RMK A01 T00721012  RH  056%=      5-min Rain = 0
KLD1 181155Z 24010KT 07/M01 A2986 RMK A01 T00741011  RH  055%=      5-min Rain = 0
KLD1 181200Z 24009KT 07/M01 A2986 RMK A01 T00731010  RH  056%=      5-min Rain = 0
KLD1 181205Z 23009KT 08/M01 A2985 RMK A01 T00771008  RH  056%=      5-min Rain = 0
KLD1 181210Z 24010KT 08/M01 A2985 RMK A01 T00811006  RH  055%=      5-min Rain = 0
KLD1 181215Z 23010KT 08/M01 A2985 RMK A01 T00821006  RH  054%=      5-min Rain = 0
KLD1 181220Z 24011KT 08/M01 A2985 RMK A01 T00831005  RH  054%=      5-min Rain = 0
KLD1 181225Z 24010KT 09/M01 A2985 RMK A01 T00851005  RH  054%=      5-min Rain = 0
KLD1 181230Z 24012KT 09/M00 A2985 RMK A01 T00871004  RH  053%=      5-min Rain = 0
KLD1 181235Z 24012KT 09/M00 A2986 RMK A01 T00881003  RH  053%=      5-min Rain = 0
KLD1 181240Z 24010KT 09/M00 A2985 RMK A01 T00861002  RH  055%=      5-min Rain = 0
KLD1 181245Z 24010KT 09/M00 A2985 RMK A01 T00881002  RH  054%=      5-min Rain = 0
KLD1 181250Z 24011G16KT 09/M00 A2985 RMK A01 T00891001  RH  054%=      5-min Rain = 0
KLD1 181255Z 24011KT 09/M00 A2986 RMK A01 T00881001  RH  054%=      5-min Rain = 0
KLD1 181300Z 24009KT 09/M00 A2986 RMK A01 T00851002  RH  055%=      5-min Rain = 0
KLD1 181305Z 24008KT 08/M00 A2985 RMK A01 T00821002  RH  056%=      5-min Rain = 0
KLD1 181310Z 24008KT 08/M00 A2986 RMK A01 T00791003  RH  057%=      5-min Rain = 0
KLD1 181315Z 24007KT 08/M00 A2986 RMK A01 T00761003  RH  058%=      5-min Rain = 0
KLD1 181320Z 26007KT 07/M00 A2986 RMK A01 T00721003  RH  060%=      5-min Rain = 0
KLD1 181325Z 26008KT 07/M00 A2986 RMK A01 T00731001  RH  060%=      5-min Rain = 0
KLD1 181330Z 25009KT 08/00 A2985 RMK A01 T00780000  RH  059%=      5-min Rain = 0
KLD1 181335Z 25011KT 08/00 A2985 RMK A01 T00800000  RH  058%=      5-min Rain = 0
KLD1 181340Z 24012KT 08/00 A2985 RMK A01 T00810000  RH  057%=      5-min Rain = 0
KLD1 181345Z 24011KT 08/00 A2985 RMK A01 T00810001  RH  058%=      5-min Rain = 0
KLD1 181350Z 24011KT 08/00 A2984 RMK A01 T00810001  RH  058%=      5-min Rain = 0
KLD1 181355Z 24012G17KT 08/00 A2984 RMK A01 T00820001  RH  057%=      5-min Rain = 0
KLD1 181400Z 24012KT 08/00 A2983 RMK A01 T00840001  RH  057%=      5-min Rain = 0
KLD1 181405Z 24012KT 08/00 A2983 RMK A01 T00830001  RH  057%=      5-min Rain = 0
KLD1 181410Z 24011KT 08/00 A2983 RMK A01 T00800001  RH  058%=      5-min Rain = 0
KLD1 181415Z 24012KT 08/00 A2983 RMK A01 T00800002  RH  059%=      5-min Rain = 0
KLD1 181420Z 23011KT 08/00 A2983 RMK A01 T00790002  RH  059%=      5-min Rain = 0
KLD1 181425Z 24010KT 08/00 A2983 RMK A01 T00790002  RH  059%=      5-min Rain = 0
KLD1 181430Z 25010KT 08/00 A2983 RMK A01 T00800003  RH  059%=      5-min Rain = 0
KLD1 181435Z 25012KT 09/01 A2983 RMK A01 T00850005  RH  058%=      5-min Rain = 0
KLD1 181440Z 25013G18KT 10/01 A2983 RMK A01 T00950006  RH  054%=      5-min Rain = 0
KLD1 181445Z 25013KT 10/01 A2983 RMK A01 T01010007  RH  053%=      5-min Rain = 0
KLD1 181450Z 26014KT 11/01 A2984 RMK A01 T01080008  RH  050%=      5-min Rain = 0
KLD1 181455Z 26014KT 11/01 A2984 RMK A01 T01100007  RH  050%=      5-min Rain = 0
KLD1 181500Z 26012G17KT 11/01 A2984 RMK A01 T01110007  RH  049%=      5-min Rain = 0
KLD1 181505Z 26012KT 11/01 A2984 RMK A01 T01100008  RH  050%=      5-min Rain = 0
KLD1 181510Z 26011KT 11/01 A2983 RMK A01 T01060008  RH  052%=      5-min Rain = 0
KLD1 181515Z 25010KT 11/01 A2983 RMK A01 T01070010  RH  052%=      5-min Rain = 0
KLD1 181520Z 26009KT 11/01 A2983 RMK A01 T01070011  RH  052%=      5-min Rain = 0
KLD1 181525Z 26011KT 11/01 A2983 RMK A01 T01130011  RH  050%=      5-min Rain = 0
KLD1 181530Z 25013KT 12/01 A2983 RMK A01 T01150010  RH  049%=      5-min Rain = 0
KLD1 181535Z 25014KT 12/01 A2983 RMK A01 T01170007  RH  047%=      5-min Rain = 0
KLD1 181540Z 26015KT 12/01 A2983 RMK A01 T01200005  RH  046%=      5-min Rain = 0
KLD1 181545Z 25014G19KT 12/01 A2983 RMK A01 T01230005  RH  045%=      5-min Rain = 0
KLD1 181550Z 25016KT 12/00 A2983 RMK A01 T01240004  RH  044%=      5-min Rain = 0
KLD1 181555Z 25015G20KT 13/00 A2983 RMK A01 T01250004  RH  044%=      5-min Rain = 0
KLD1 181600Z 25016KT 13/01 A2983 RMK A01 T01290006  RH  043%=      5-min Rain = 0
KLD1 181605Z 25015G20KT 14/01 A2982 RMK A01 T01350006  RH  042%=      5-min Rain = 0
KLD1 181610Z 25016G22KT 14/01 A2982 RMK A01 T01420005  RH  040%=      5-min Rain = 0
KLD1 181615Z 25018G24KT 15/00 A2982 RMK A01 T01490004  RH  038%=      5-min Rain = 0
KLD1 181620Z 25016G24KT 16/00 A2982 RMK A01 T01560003  RH  036%=      5-min Rain = 0
KLD1 181625Z 25016G24KT 16/00 A2981 RMK A01 T01640003  RH  034%=      5-min Rain = 0
KLD1 181630Z 25019G24KT 17/M00 A2982 RMK A01 T01671001  RH  032%=      5-min Rain = 0
KLD1 181635Z 25022G27KT 17/M00 A2982 RMK A01 T01701004  RH  031%=      5-min Rain = 0
KLD1 181640Z 25023G28KT 17/M01 A2981 RMK A01 T01701006  RH  031%=      5-min Rain = 0
KLD1 181645Z 25023G29KT 17/M01 A2981 RMK A01 T01721006  RH  030%=      5-min Rain = 0
KLD1 181650Z 25022G27KT 17/M01 A2981 RMK A01 T01721006  RH  030%=      5-min Rain = 0
KLD1 181655Z 25021G27KT 18/M01 A2981 RMK A01 T01761005  RH  030%=      5-min Rain = 0
KLD1 181700Z 24022G28KT 18/M01 A2981 RMK A01 T01771007  RH  029%=      5-min Rain = 0
KLD1 181705Z 25021G30KT 18/M01 A2981 RMK A01 T01791008  RH  028%=      5-min Rain = 0
KLD1 181710Z 25026G33KT 18/M01 A2981 RMK A01 T01771010  RH  028%=      5-min Rain = 0
KLD1 181715Z 25023G29KT 18/M01 A2981 RMK A01 T01771010  RH  028%=      5-min Rain = 0
KLD1 181720Z 25020G27KT 18/M01 A2981 RMK A01 T01751007  RH  029%=      5-min Rain = 0
KLD1 181725Z 25021G27KT 17/M01 A2981 RMK A01 T01721009  RH  030%=      5-min Rain = 0
KLD1 181730Z 25020G27KT 18/M01 A298 RMK A01 T01751008  RH  029%=      5-min Rain = 0
KLD1 181735Z 25022G28KT 18/M01 A298 RMK A01 T01751010  RH  029%=      5-min Rain = 0
KLD1 181740Z 25022G28KT 18/M01 A298 RMK A01 T01761010  RH  029%=      5-min Rain = 0
KLD1 181745Z 26021G30KT 18/M01 A298 RMK A01 T01751010  RH  029%=      5-min Rain = 0
KLD1 181750Z 26022G29KT 18/M01 A2979 RMK A01 T01761010  RH  028%=      5-min Rain = 0
KLD1 181755Z 27019G24KT 18/M01 A2979 RMK A01 T01761010  RH  029%=      5-min Rain = 0
KLD1 181800Z 27021G30KT 17/M01 A2979 RMK A01 T01741009  RH  029%=      5-min Rain = 0
KLD1 181805Z 27021G28KT 17/M01 A2979 RMK A01 T01741006  RH  030%=      5-min Rain = 0
KLD1 181810Z 26025G31KT 18/M01 A2978 RMK A01 T01761007  RH  029%=      5-min Rain = 0
KLD1 181815Z 26024G29KT 18/M01 A2978 RMK A01 T01751006  RH  029%=      5-min Rain = 0
KLD1 181820Z 26021G30KT 18/M01 A2978 RMK A01 T01771006  RH  029%=      5-min Rain = 0
KLD1 181825Z 26024G31KT 18/M01 A2977 RMK A01 T01781005  RH  029%=      5-min Rain = 0
KLD1 181830Z 26024G33KT 18/M00 A2976 RMK A01 T01831004  RH  029%=      5-min Rain = 0
KLD1 181835Z 26027G35KT 18/M00 A2976 RMK A01 T01831004  RH  028%=      5-min Rain = 0
KLD1 181840Z 26025G34KT 19/M00 A2975 RMK A01 T01851004  RH  028%=      5-min Rain = 0
KLD1 181845Z 26028G37KT 18/M01 A2975 RMK A01 T01821005  RH  029%=      5-min Rain = 0
KLD1 181850Z 26026G37KT 18/M00 A2975 RMK A01 T01841003  RH  029%=      5-min Rain = 0
KLD1 181855Z 27026G32KT 19/M00 A2975 RMK A01 T01851004  RH  028%=      5-min Rain = 0
KLD1 181900Z 26027G34KT 19/M00 A2975 RMK A01 T01861003  RH  028%=      5-min Rain = 0
KLD1 181905Z 26026G35KT 19/M01 A2975 RMK A01 T01891005  RH  027%=      5-min Rain = 0
KLD1 181910Z 26026G34KT 19/M01 A2974 RMK A01 T01851005  RH  028%=      5-min Rain = 0
KLD1 181915Z 26027G34KT 19/M01 A2973 RMK A01 T01871006  RH  028%=      5-min Rain = 0
KLD1 181920Z 26026G36KT 18/M01 A2973 RMK A01 T01841007  RH  028%=      5-min Rain = 0
KLD1 181925Z 26027G34KT 19/M01 A2972 RMK A01 T01861008  RH  027%=      5-min Rain = 0
KLD1 181930Z 25027G36KT 19/M01 A2972 RMK A01 T01851005  RH  028%=      5-min Rain = 0
KLD1 181935Z 26022G30KT 19/M00 A2972 RMK A01 T01861004  RH  028%=      5-min Rain = 0
KLD1 181940Z 27023G34KT 19/M01 A2971 RMK A01 T01861006  RH  028%=      5-min Rain = 0
KLD1 181945Z 27023G30KT 19/M01 A2971 RMK A01 T01941005  RH  026%=      5-min Rain = 0
KLD1 181950Z 26028G36KT 19/M01 A297 RMK A01 T01921007  RH  026%=      5-min Rain = 0
KLD1 181955Z 26027G35KT 19/M01 A297 RMK A01 T01921006  RH  027%=      5-min Rain = 0
KLD1 182000Z 26024G33KT 19/M01 A297 RMK A01 T01941007  RH  026%=      5-min Rain = 0
KLD1 182005Z 27027G34KT 18/M01 A297 RMK A01 T01841012  RH  027%=      5-min Rain = 0
KLD1 182010Z 28024G31KT 18/M01 A297 RMK A01 T01831009  RH  027%=      5-min Rain = 0
KLD1 182015Z 28027G36KT 18/M01 A297 RMK A01 T01821006  RH  028%=      5-min Rain = 0
KLD1 182020Z 28025G31KT 19/M00 A297 RMK A01 T01861003  RH  028%=      5-min Rain = 0
KLD1 182025Z 27026G34KT 19/00 A297 RMK A01 T01880001  RH  029%=      5-min Rain = 0
KLD1 182030Z 27027G32KT 18/M00 A297 RMK A01 T01791002  RH  030%=      5-min Rain = 0
KLD1 182035Z 27027G34KT 18/00 A2971 RMK A01 T017500-0  RH  031%=      5-min Rain = 0
KLD1 182040Z 26028G41KT 18/00 A297 RMK A01 T01770003  RH  031%=      5-min Rain = 0
KLD1 182045Z 26028G38KT 18/01 A297 RMK A01 T01750007  RH  032%=      5-min Rain = 0
KLD1 182050Z 27026G34KT 17/01 A2971 RMK A01 T01700007  RH  034%=      5-min Rain = 0
KLD1 182055Z 27027G33KT 16/01 A2971 RMK A01 T01620006  RH  035%=      5-min Rain = 0
KLD1 182100Z 28025G36KT 16/01 A2971 RMK A01 T01610006  RH  035%=      5-min Rain = 0
KLD1 182105Z 27025G30KT 16/00 A2971 RMK A01 T01610003  RH  035%=      5-min Rain = 0
KLD1 182110Z 27026G34KT 16/M00 A2971 RMK A01 T01591001  RH  034%=      5-min Rain = 0
KLD1 182115Z 27025G32KT 16/M00 A2971 RMK A01 T01591003  RH  034%=      5-min Rain = 0
KLD1 182120Z 27025G31KT 16/M00 A2971 RMK A01 T01631001  RH  033%=      5-min Rain = 0
KLD1 182125Z 27024G35KT 17/M00 A2971 RMK A01 T01691002  RH  032%=      5-min Rain = 0
KLD1 182130Z 27025G35KT 17/M01 A297 RMK A01 T01661005  RH  032%=      5-min Rain = 0
KLD1 182135Z 27026G34KT 17/M01 A297 RMK A01 T01671007  RH  031%=      5-min Rain = 0
KLD1 182140Z 27026G33KT 17/M01 A297 RMK A01 T01681011  RH  030%=      5-min Rain = 0
KLD1 182145Z 28024G32KT 17/M02 A297 RMK A01 T01661016  RH  029%=      5-min Rain = 0
KLD1 182150Z 28027G34KT 17/M03 A297 RMK A01 T01671025  RH  027%=      5-min Rain = 0
KLD1 182155Z 27026G33KT 16/M03 A297 RMK A01 T01571031  RH  027%=      5-min Rain = 0
KLD1 182200Z 27025G33KT 15/M03 A2971 RMK A01 T01531033  RH  028%=      5-min Rain = 0
KLD1 182205Z 27025G32KT 15/M03 A2971 RMK A01 T01531033  RH  028%=      5-min Rain = 0
KLD1 182210Z 27023G33KT 15/M03 A2971 RMK A01 T01531032  RH  028%=      5-min Rain = 0
KLD1 182215Z 26025G33KT 15/M04 A2971 RMK A01 T01511035  RH  028%=      5-min Rain = 0
KLD1 182220Z 26025G33KT 15/M04 A2971 RMK A01 T01491042  RH  026%=      5-min Rain = 0
KLD1 182225Z 26024G31KT 15/M05 A2971 RMK A01 T01471048  RH  026%=      5-min Rain = 0
KLD1 182230Z 26023G30KT 15/M05 A2972 RMK A01 T01471048  RH  026%=      5-min Rain = 0
KLD1 182235Z 26020G26KT 15/M05 A2972 RMK A01 T01471046  RH  026%=      5-min Rain = 0
KLD1 182240Z 26020G28KT 15/M05 A2971 RMK A01 T01461047  RH  026%=      5-min Rain = 0
KLD1 182245Z 25021G26KT 15/M05 A2971 RMK A01 T01451047  RH  026%=      5-min Rain = 0
KLD1 182250Z 25020G28KT 15/M05 A2971 RMK A01 T01481049  RH  025%=      5-min Rain = 0
KLD1 182255Z 26019G25KT 16/M05 A2971 RMK A01 T01561051  RH  024%=      5-min Rain = 0
KLD1 182300Z 26018G25KT 16/M06 A297 RMK A01 T01581056  RH  023%=      5-min Rain = 0
KLD1 182305Z 25020G28KT 15/M06 A2969 RMK A01 T01541063  RH  022%=      5-min Rain = 0
KLD1 182310Z 25020G27KT 15/M06 A2969 RMK A01 T01501063  RH  023%=      5-min Rain = 0
KLD1 182315Z 25022G28KT 14/M06 A2969 RMK A01 T01441064  RH  023%=      5-min Rain = 0
KLD1 182320Z 26020G27KT 14/M06 A297 RMK A01 T01431063  RH  024%=      5-min Rain = 0
KLD1 182325Z 27020G30KT 14/M06 A297 RMK A01 T01411064  RH  024%=      5-min Rain = 0
KLD1 182330Z 27025G32KT 14/M08 A297 RMK A01 T01421076  RH  021%=      5-min Rain = 0
KLD1 182335Z 28023G36KT 14/M08 A2971 RMK A01 T01381077  RH  022%=      5-min Rain = 0
KLD1 182340Z 28026G33KT 14/M08 A297 RMK A01 T01381075  RH  022%=      5-min Rain = 0
KLD1 182345Z 28024G33KT 14/M07 A2971 RMK A01 T01361073  RH  023%=      5-min Rain = 0
KLD1 182350Z 28023G30KT 13/M07 A2971 RMK A01 T01341072  RH  023%=      5-min Rain = 0
KLD1 182355Z 28022G32KT 13/M07 A2972 RMK A01 T01331071  RH  023%=      5-min Rain = 0
KLD1 190000Z 28018G24KT 13/M07 A2972 RMK A01 T01301072  RH  024%=      5-min Rain = 0
KLD1 190005Z 28022G35KT 13/M08 A2972 RMK A01 T01291075  RH  023%=      5-min Rain = 0
KLD1 190010Z 28023G31KT 13/M08 A2972 RMK A01 T01301076  RH  023%=      5-min Rain = 0
KLD1 190015Z 28024G33KT 13/M08 A2972 RMK A01 T01281075  RH  024%=      5-min Rain = 0
KLD1 190020Z 28024G35KT 13/M07 A2972 RMK A01 T01281074  RH  024%=      5-min Rain = 0
KLD1 190025Z 28025G33KT 13/M07 A2973 RMK A01 T01281071  RH  024%=      5-min Rain = 0
KLD1 190030Z 28023G31KT 13/M07 A2973 RMK A01 T01261071  RH  025%=      5-min Rain = 0
KLD1 190035Z 28022G28KT 13/M07 A2973 RMK A01 T01251071  RH  025%=      5-min Rain = 0
KLD1 190040Z 28022G27KT 12/M07 A2973 RMK A01 T01241071  RH  025%=      5-min Rain = 0
KLD1 190045Z 29029G38KT 12/M07 A2974 RMK A01 T01241067  RH  026%=      5-min Rain = 0
KLD1 190050Z 30032G43KT 12/M04 A2975 RMK A01 T01221041  RH  032%=      5-min Rain = 0
KLD1 190055Z 32036G52KT 11/M01 A2977 RMK A01 T01101010  RH  044%=      5-min Rain = 0
KLD1 190100Z 32037G46KT 10/00 A2978 RMK A01 T009800-0  RH  051%=      5-min Rain = 0
KLD1 190105Z 32034G46KT 10/00 A298 RMK A01 T00950003  RH  053%=      5-min Rain = 0
KLD1 190110Z 32030G39KT 09/00 A2981 RMK A01 T00930004  RH  055%=      5-min Rain = 0
KLD1 190115Z 32031G40KT 09/01 A2981 RMK A01 T00910006  RH  056%=      5-min Rain = 0
KLD1 190120Z 32032G43KT 09/01 A2982 RMK A01 T00880009  RH  059%=      5-min Rain = 0
KLD1 190125Z 33034G44KT 08/02 A2982 RMK A01 T00760024  RH  071%=      5-min Rain = 0
KLD1 190130Z 33029G40KT 07/03 A2983 RMK A01 T00700028  RH  076%=      5-min Rain = 0
KLD1 190135Z 33025G31KT 07/03 A2983 RMK A01 T00700026  RH  075%=      5-min Rain = 0
KLD1 190140Z 33021G28KT 07/03 A2983 RMK A01 T00690025  RH  075%=      5-min Rain = 0
KLD1 190145Z 33019G27KT 07/02 A2984 RMK A01 T00680024  RH  075%=      5-min Rain = 0
KLD1 190150Z 32022G31KT 07/02 A2984 RMK A01 T00680024  RH  075%=      5-min Rain = 0
KLD1 190155Z 32026G33KT 07/03 A2985 RMK A01 T00660025  RH  077%=      5-min Rain = 0
KLD1 190200Z 32025G32KT 07/03 A2986 RMK A01 T00650025  RH  077%=      5-min Rain = 0
KLD1 190205Z 32025G32KT 06/02 A2986 RMK A01 T00630022  RH  077%=      5-min Rain = 0
KLD1 190210Z 32024G33KT 06/02 A2987 RMK A01 T00560017  RH  077%=      5-min Rain = 0
KLD1 190215Z 32026G34KT 05/02 A2987 RMK A01 T00530016  RH  078%=      5-min Rain = 0
KLD1 190220Z 32027G34KT 05/02 A2988 RMK A01 T00510015  RH  079%=      5-min Rain = 0
KLD1 190225Z 33027G35KT 05/01 A2989 RMK A01 T00500014  RH  079%=      5-min Rain = 0
KLD1 190230Z 33028G35KT 05/01 A2989 RMK A01 T00500012  RH  078%=      5-min Rain = 0
KLD1 190235Z 32024G31KT 05/01 A2989 RMK A01 T00510013  RH  078%=      5-min Rain = 0
KLD1 190240Z 32026G35KT 05/01 A299 RMK A01 T00520014  RH  078%=      5-min Rain = 0
KLD1 190245Z 32026G35KT 05/01 A299 RMK A01 T00530014  RH  077%=      5-min Rain = 0
KLD1 190250Z 32023G31KT 05/02 A2991 RMK A01 T00530015  RH  078%=      5-min Rain = 0
KLD1 190255Z 31021G28KT 05/02 A2992 RMK A01 T00530016  RH  078%=      5-min Rain = 0
KLD1 190300Z 31021G29KT 05/02 A2992 RMK A01 T00530017  RH  079%=      5-min Rain = 0
KLD1 190305Z 32022G30KT 05/02 A2992 RMK A01 T00520020  RH  081%=      5-min Rain = 0
KLD1 190310Z 32021G28KT 05/02 A2993 RMK A01 T00510021  RH  082%=      5-min Rain = 0
KLD1 190315Z 32021G30KT 05/02 A2993 RMK A01 T00510021  RH  082%=      5-min Rain = 0
KLD1 190320Z 33023G31KT 05/02 A2993 RMK A01 T00500018  RH  081%=      5-min Rain = 0
KLD1 190325Z 33026G34KT 05/01 A2994 RMK A01 T00510011  RH  076%=      5-min Rain = 0
KLD1 190330Z 32024G34KT 05/01 A2995 RMK A01 T00510011  RH  076%=      5-min Rain = 0
KLD1 190335Z 33027G37KT 05/01 A2995 RMK A01 T00490008  RH  076%=      5-min Rain = 0
KLD1 190340Z 33026G34KT 05/01 A2996 RMK A01 T00470008  RH  076%=      5-min Rain = 0
KLD1 190345Z 33026G36KT 05/01 A2997 RMK A01 T00450006  RH  077%=      5-min Rain = 0
KLD1 190350Z 34022G31KT 04/00 A2997 RMK A01 T00440004  RH  076%=      5-min Rain = 0
KLD1 190355Z 34026G33KT 05/00 A2998 RMK A01 T00450002  RH  074%=      5-min Rain = 0
KLD1 190400Z 34030G39KT 04/M00 A2998 RMK A01 T00441002  RH  073%=      5-min Rain = 0
KLD1 190405Z 34028G37KT 04/M00 A2999 RMK A01 T00381002  RH  076%=      5-min Rain = 0
KLD1 190410Z 33030G40KT 03/00 A2999 RMK A01 T003200-0  RH  081%=      5-min Rain = 0
KLD1 190415Z 33031G42KT 02/00 A30 RMK A01 T002400-0  RH  085%=      5-min Rain = 0
KLD1 190420Z 33029G37KT 02/00 A3001 RMK A01 T00180000  RH  089%=      5-min Rain = 0
KLD1 190425Z 34025G34KT 02/00 A3001 RMK A01 T00170001  RH  090%=      5-min Rain = 0
KLD1 190430Z 33026G33KT 02/00 A3002 RMK A01 T00160000  RH  090%=      5-min Rain = 0
KLD1 190435Z 34024G34KT 02/M00 A3002 RMK A01 T00161001  RH  090%=      5-min Rain = 0
KLD1 190440Z 34027G35KT 02/M00 A3002 RMK A01 T00161004  RH  087%=      5-min Rain = 0
KLD1 190445Z 34027G34KT 02/M01 A3003 RMK A01 T00151006  RH  087%=      5-min Rain = 0
KLD1 190450Z 35023G33KT 01/M01 A3003 RMK A01 T00141005  RH  088%=      5-min Rain = 0
KLD1 190455Z 35024G33KT 01/M01 A3004 RMK A01 T00121005  RH  089%=      5-min Rain = 0
KLD1 190500Z 34020G27KT 01/M01 A3004 RMK A01 T00101005  RH  091%=      5-min Rain = 0
KLD1 190505Z 34019G25KT 01/M00 A3004 RMK A01 T00101004  RH  092%=      5-min Rain = 0
KLD1 190510Z 34021G28KT 01/M00 A3005 RMK A01 T00101004  RH  091%=      5-min Rain = 0
KLD1 190515Z 33020G27KT 01/M00 A3005 RMK A01 T00101003  RH  092%=      5-min Rain = 0
KLD1 190520Z 33019G25KT 01/M00 A3006 RMK A01 T00111003  RH  091%=      5-min Rain = 0
KLD1 190525Z 33019G26KT 01/M00 A3006 RMK A01 T00111003  RH  091%=      5-min Rain = 0
KLD1 190530Z 33019G26KT 01/M00 A3006 RMK A01 T00121003  RH  091%=      5-min Rain = 0
KLD1 190535Z 33021G28KT 01/M00 A3007 RMK A01 T00121003  RH  091%=      5-min Rain = 0
KLD1 190540Z 33019G25KT 01/M00 A3007 RMK A01 T00131003  RH  091%=      5-min Rain = 0
KLD1 190545Z 33019G28KT 01/M00 A3007 RMK A01 T00121002  RH  091%=      5-min Rain = 0
KLD1 190550Z 33021G28KT 01/M00 A3007 RMK A01 T00131003  RH  090%=      5-min Rain = 0
KLD1 190555Z 33020G26KT 01/M00 A3007 RMK A01 T00131003  RH  090%=      5-min Rain = 0

Page generated in 0.0091 seconds.